createdAt,value
2023-03-07T00:02:04.575Z,0.75
2023-03-07T00:07:09.970Z,0.73
2023-03-07T00:12:14.112Z,3.83
2023-03-07T00:17:18.206Z,1.30
2023-03-07T00:22:24.415Z,1.02
2023-03-07T00:27:28.590Z,0.53
2023-03-07T00:32:33.342Z,0.40
2023-03-07T00:37:38.794Z,0.68
2023-03-07T00:42:42.789Z,1.40
2023-03-07T00:47:47.222Z,0.90
2023-03-07T00:52:52.671Z,0.75
2023-03-07T00:57:57.836Z,4.13
2023-03-07T01:03:04.305Z,2.60
2023-03-07T01:08:11.715Z,1.75
2023-03-07T01:13:18.211Z,2.53
2023-03-07T01:18:23.029Z,1.77
2023-03-07T01:23:31.631Z,2.53
2023-03-07T01:29:14.157Z,3.03
2023-03-07T01:34:51.661Z,3.55
2023-03-07T01:40:31.538Z,3.17
2023-03-07T01:46:44.937Z,5.25
2023-03-07T01:52:34.719Z,6.32
2023-03-07T01:57:50.864Z,4.70
2023-03-07T02:03:05.824Z,5.78
2023-03-07T02:08:27.535Z,6.10
2023-03-07T02:13:33.912Z,4.68
2023-03-07T02:18:46.320Z,5.50
2023-03-07T02:23:59.219Z,4.80
2023-03-07T02:29:05.380Z,5.85
2023-03-07T02:34:22.510Z,3.63
2023-03-07T02:39:31.001Z,4.10
2023-03-07T02:44:38.997Z,3.47
2023-03-07T02:49:43.180Z,3.22
2023-03-07T02:54:48.124Z,3.63
2023-03-07T02:59:53.753Z,4.13
2023-03-07T03:04:58.183Z,4.85
2023-03-07T03:10:02.332Z,6.10
2023-03-07T03:15:12.538Z,4.15
2023-03-07T03:20:17.283Z,2.80
2023-03-07T03:25:23.253Z,3.25
2023-03-07T03:30:32.376Z,3.53
2023-03-07T03:35:40.989Z,3.10
2023-03-07T03:40:45.649Z,4.97
2023-03-07T03:45:57.877Z,3.55
2023-03-07T03:51:06.760Z,3.10
2023-03-07T03:56:13.554Z,5.60
2023-03-07T04:01:23.423Z,2.35
2023-03-07T04:06:30.397Z,2.50
2023-03-07T04:11:35.516Z,2.97
2023-03-07T04:16:41.025Z,5.32
2023-03-07T04:21:45.501Z,2.08
2023-03-07T04:26:52.762Z,4.35
2023-03-07T04:31:58.691Z,3.65
2023-03-07T04:37:02.950Z,4.72
2023-03-07T04:42:07.505Z,2.40
2023-03-07T04:47:15.116Z,3.42
2023-03-07T04:52:20.500Z,6.80
2023-03-07T04:57:24.868Z,1.83
2023-03-07T05:02:30.308Z,6.35
2023-03-07T05:07:35.044Z,5.10
2023-03-07T05:13:46.888Z,3.08
2023-03-07T05:18:56.005Z,19.20
2023-03-07T05:24:00.583Z,1.90
2023-03-07T05:29:05.660Z,2.20
2023-03-07T05:34:11.299Z,2.53
2023-03-07T05:39:16.612Z,6.55
2023-03-07T05:44:21.037Z,5.28
2023-03-07T05:49:26.657Z,4.85
2023-03-07T05:54:31.104Z,3.70
2023-03-07T05:59:35.329Z,4.05
2023-03-07T06:04:40.943Z,2.85
2023-03-07T06:09:45.087Z,3.83
2023-03-07T06:14:50.978Z,3.78
2023-03-07T06:19:57.147Z,4.82
2023-03-07T06:25:01.505Z,4.50
2023-03-07T06:30:08.842Z,5.40
2023-03-07T06:35:14.585Z,6.05
2023-03-07T06:40:19.724Z,4.50
2023-03-07T06:45:23.872Z,5.82
2023-03-07T06:50:35.093Z,5.75
2023-03-07T06:55:41.109Z,5.63
2023-03-07T07:00:48.174Z,7.72
2023-03-07T07:05:53.970Z,5.03
2023-03-07T07:10:59.879Z,3.33
2023-03-07T07:16:06.946Z,5.15
2023-03-07T07:21:14.311Z,7.93
2023-03-07T07:26:18.368Z,6.70
2023-03-07T07:31:23.194Z,4.43
2023-03-07T07:36:29.158Z,6.93
2023-03-07T07:41:33.679Z,6.30
2023-03-07T07:46:38.062Z,5.03
2023-03-07T07:51:45.849Z,4.07
2023-03-07T07:56:50.093Z,2.95
2023-03-07T08:01:54.881Z,4.60
2023-03-07T08:07:00.320Z,4.30
2023-03-07T08:12:04.726Z,3.88
2023-03-07T08:17:08.821Z,5.95
2023-03-07T08:22:14.204Z,6.03
2023-03-07T08:27:18.245Z,5.78
2023-03-07T08:32:22.398Z,5.53
2023-03-07T08:37:27.742Z,5.82
2023-03-07T08:42:32.136Z,6.53
2023-03-07T08:47:36.260Z,9.50
2023-03-07T08:52:43.862Z,10.95
2023-03-07T08:57:47.871Z,12.27
2023-03-07T09:02:51.851Z,7.75
2023-03-07T09:07:58.982Z,7.25
2023-03-07T09:13:03.313Z,8.15
2023-03-07T09:18:07.514Z,8.60
2023-03-07T09:23:13.041Z,8.50
2023-03-07T09:28:17.114Z,7.78
2023-03-07T09:33:21.433Z,7.85
2023-03-07T09:38:26.922Z,9.65
2023-03-07T09:43:48.944Z,6.45
2023-03-07T09:49:35.622Z,7.05
2023-03-07T09:54:45.800Z,6.55
2023-03-07T09:59:53.926Z,7.38
2023-03-07T10:05:06.188Z,7.57
2023-03-07T10:10:20.619Z,5.68
2023-03-07T10:15:45.590Z,5.50
2023-03-07T10:20:54.144Z,5.50
2023-03-07T10:26:11.688Z,5.78
2023-03-07T10:31:20.103Z,5.03
2023-03-07T10:36:34.448Z,6.65
2023-03-07T10:41:39.932Z,7.35
2023-03-07T10:46:55.238Z,8.43
2023-03-07T10:52:05.968Z,8.40
2023-03-07T10:57:16.233Z,10.13
2023-03-07T11:02:36.149Z,10.10
2023-03-07T11:07:40.315Z,11.73
2023-03-07T11:12:47.806Z,12.73
2023-03-07T11:17:52.989Z,12.88
2023-03-07T11:23:19.295Z,12.52
2023-03-07T11:28:31.906Z,11.40
2023-03-07T11:33:59.033Z,9.95
2023-03-07T11:39:13.916Z,8.48
2023-03-07T11:44:34.772Z,9.05
2023-03-07T11:49:46.591Z,9.45
2023-03-07T11:55:05.312Z,8.52
2023-03-07T12:00:30.341Z,6.97
2023-03-07T12:05:55.519Z,6.47
2023-03-07T12:11:20.573Z,12.00
2023-03-07T12:16:40.162Z,10.52
2023-03-07T12:22:30.055Z,11.75
2023-03-07T12:27:37.917Z,11.30
2023-03-07T12:32:43.513Z,8.40
2023-03-07T12:37:53.315Z,6.53
2023-03-07T12:43:03.354Z,7.25
2023-03-07T12:48:20.266Z,5.72
2023-03-07T12:58:43.210Z,5.97
2023-03-07T13:03:58.039Z,3.92
2023-03-07T13:09:04.073Z,3.83
2023-03-07T13:14:08.135Z,3.57
2023-03-07T13:20:05.932Z,3.40
2023-03-07T13:25:49.125Z,1.58
2023-03-07T13:31:42.701Z,3.67
2023-03-07T13:36:48.150Z,2.63
2023-03-07T13:41:52.685Z,2.05
2023-03-07T13:47:01.370Z,1.23
2023-03-07T13:52:40.645Z,3.83
2023-03-07T13:57:44.901Z,2.42
2023-03-07T14:02:49.996Z,4.20
2023-03-07T14:07:55.649Z,1.40
2023-03-07T14:13:44.845Z,1.23
2023-03-07T14:19:05.495Z,2.15
2023-03-07T14:24:36.005Z,0.57
2023-03-07T14:29:51.971Z,2.13
2023-03-07T14:34:56.934Z,1.37
2023-03-07T14:40:23.623Z,4.05
2023-03-07T14:45:37.788Z,1.17
2023-03-07T14:50:45.036Z,2.15
2023-03-07T14:55:53.968Z,0.65
2023-03-07T15:01:03.346Z,2.38
2023-03-07T15:06:16.329Z,2.97
2023-03-07T15:11:33.013Z,2.05
2023-03-07T15:16:39.911Z,4.47
2023-03-07T15:26:54.070Z,3.40
2023-03-07T15:32:00.403Z,2.40
2023-03-07T15:37:25.070Z,5.93
2023-03-07T15:42:31.201Z,3.83
2023-03-07T15:47:36.131Z,5.17
2023-03-07T15:52:41.859Z,4.40
2023-03-07T15:57:54.607Z,5.25
2023-03-07T16:03:25.461Z,6.20
2023-03-07T16:08:29.993Z,2.97
2023-03-07T16:13:42.161Z,3.10
2023-03-07T16:18:46.392Z,2.90
2023-03-07T16:23:50.858Z,1.63
2023-03-07T16:28:56.553Z,1.30
2023-03-07T16:34:01.778Z,1.95
2023-03-07T16:39:06.013Z,3.95
2023-03-07T16:44:17.293Z,2.58
2023-03-07T16:49:23.070Z,3.28
2023-03-07T16:54:27.158Z,13.93
2023-03-07T16:59:43.972Z,9.70
2023-03-07T17:04:49.383Z,7.10
2023-03-07T17:09:53.817Z,4.82
2023-03-07T17:15:00.962Z,4.63
2023-03-07T17:20:08.308Z,6.15
2023-03-07T17:25:12.594Z,5.88
2023-03-07T17:30:22.506Z,5.40
2023-03-07T17:35:28.158Z,4.45
2023-03-07T17:40:32.171Z,6.05
2023-03-07T17:45:40.340Z,5.78
2023-03-07T17:50:44.581Z,5.28
2023-03-07T17:55:48.713Z,8.98
2023-03-07T18:00:54.414Z,4.32
2023-03-07T18:05:59.314Z,5.65
2023-03-07T18:11:05.751Z,4.85
2023-03-07T18:16:12.038Z,4.68
2023-03-07T18:21:22.111Z,6.63
2023-03-07T18:26:26.516Z,7.75
2023-03-07T18:31:31.943Z,6.13
2023-03-07T18:36:36.130Z,3.38
2023-03-07T18:41:40.393Z,5.45
2023-03-07T18:46:46.280Z,4.90
2023-03-07T18:51:50.512Z,3.40
2023-03-07T18:56:54.735Z,7.32
2023-03-07T19:02:03.055Z,5.57
2023-03-07T19:07:07.476Z,8.45
2023-03-07T19:12:11.580Z,6.07
2023-03-07T19:17:17.203Z,3.60
2023-03-07T19:22:25.875Z,7.85
2023-03-07T19:27:32.280Z,14.32
2023-03-07T19:32:40.953Z,4.95
2023-03-07T19:37:45.101Z,4.80
2023-03-07T19:42:49.393Z,4.35
2023-03-07T19:47:54.882Z,8.00
2023-03-07T19:52:59.229Z,4.47
2023-03-07T19:58:03.280Z,7.18
2023-03-07T20:03:19.513Z,6.25
2023-03-07T20:08:23.636Z,4.38
2023-03-07T20:13:27.916Z,10.52
2023-03-07T20:18:33.422Z,5.35
2023-03-07T20:23:38.274Z,6.45
2023-03-07T20:28:42.499Z,5.97
2023-03-07T20:33:48.696Z,4.35
2023-03-07T20:38:54.922Z,4.28
2023-03-07T20:44:01.145Z,8.07
2023-03-07T20:49:07.292Z,4.30
2023-03-07T20:54:15.327Z,3.00
2023-03-07T20:59:21.053Z,7.38
2023-03-07T21:04:26.525Z,7.15
2023-03-07T21:09:30.574Z,5.25
2023-03-07T21:14:34.685Z,5.35
2023-03-07T21:19:40.321Z,6.38
2023-03-07T21:24:44.461Z,5.32
2023-03-07T21:29:48.486Z,4.57
2023-03-07T21:34:54.000Z,3.70
2023-03-07T21:39:58.098Z,4.40
2023-03-07T21:45:02.308Z,6.90
2023-03-07T21:50:09.031Z,6.43
2023-03-07T21:55:13.613Z,6.05
2023-03-07T22:00:19.561Z,6.05
2023-03-07T22:05:25.133Z,5.73
2023-03-07T22:10:29.240Z,8.35
2023-03-07T22:15:33.318Z,6.38
2023-03-07T22:20:43.398Z,6.28
2023-03-07T22:25:47.531Z,5.93
2023-03-07T22:30:51.995Z,8.48
2023-03-07T22:36:02.853Z,8.20
2023-03-07T22:41:09.552Z,6.50
2023-03-07T22:46:14.560Z,11.27
2023-03-07T22:51:20.229Z,7.13
2023-03-07T22:56:26.681Z,7.85
2023-03-07T23:01:30.957Z,6.50
2023-03-07T23:06:37.829Z,12.88
2023-03-07T23:16:47.645Z,9.00
2023-03-07T23:21:53.015Z,9.85
2023-03-07T23:26:57.047Z,15.38
2023-03-07T23:32:03.677Z,13.00
2023-03-07T23:37:09.215Z,12.63
2023-03-07T23:42:13.908Z,13.30
2023-03-07T23:47:18.098Z,12.95
2023-03-07T23:52:23.475Z,16.42
2023-03-07T23:57:27.494Z,20.63
